Time;durP1;ratioP1;P1;durP2;ratioP2;P2;SDS_P1;SDS_P2;PMS_P1;PMS_P2;Temp;Humidity;BMP_temperature;BMP_pressure;BME280_temperature;BME280_humidity;BME280_pressure;Samples;Min_cycle;Max_cycle;Signal;HPM_P1;HPM_P2
2021/07/20 00:00:19;;;;;;;18.17;9.18;;;15.00;99.90;;;;;;5084922;28;20208;-63
2021/07/20 00:02:48;;;;;;;17.10;8.10;;;14.90;99.90;;;;;;5087080;28;20214;-64
2021/07/20 00:05:21;;;;;;;12.38;9.27;;;14.90;99.90;;;;;;5091314;28;20592;-63
2021/07/20 00:07:57;;;;;;;16.55;9.20;;;14.90;99.90;;;;;;5090614;28;20207;-63
2021/07/20 00:10:26;;;;;;;11.20;8.32;;;14.90;99.90;;;;;;5091392;28;20198;-62
2021/07/20 00:12:53;;;;;;;13.27;8.95;;;14.90;99.90;;;;;;5105623;28;20271;-62
2021/07/20 00:15:21;;;;;;;16.02;9.68;;;14.80;99.90;;;;;;5115302;28;20463;-63
2021/07/20 00:17:50;;;;;;;12.18;8.57;;;14.90;99.90;;;;;;5108626;28;20255;-64
2021/07/20 00:20:21;;;;;;;13.63;8.10;;;14.90;99.90;;;;;;5109703;28;20388;-63
2021/07/20 00:22:49;;;;;;;14.15;9.82;;;14.90;99.90;;;;;;5107123;28;20257;-63
2021/07/20 00:25:17;;;;;;;16.08;8.85;;;15.00;99.90;;;;;;5107270;28;20541;-63
2021/07/20 00:27:44;;;;;;;21.75;9.60;;;15.00;99.90;;;;;;5107215;28;20209;-63
2021/07/20 00:30:12;;;;;;;16.55;9.90;;;14.90;99.90;;;;;;5104778;28;20501;-63
2021/07/20 00:32:41;;;;;;;9.73;8.00;;;14.90;99.90;;;;;;5096804;28;20206;-63
2021/07/20 00:35:10;;;;;;;17.20;10.00;;;14.80;99.90;;;;;;5089241;28;20203;-63
2021/07/20 00:37:37;;;;;;;12.75;9.45;;;14.70;99.90;;;;;;5104544;28;20209;-63
2021/07/20 00:40:11;;;;;;;13.52;9.52;;;14.80;99.90;;;;;;5100662;28;20196;-64
2021/07/20 00:42:38;;;;;;;11.27;7.95;;;14.80;99.90;;;;;;5104327;28;20260;-64
2021/07/20 00:45:09;;;;;;;12.00;9.63;;;14.90;99.90;;;;;;5104158;28;20435;-63
2021/07/20 00:47:36;;;;;;;20.40;9.18;;;14.70;99.90;;;;;;5105902;28;20267;-63
2021/07/20 00:50:09;;;;;;;15.13;8.93;;;14.70;99.90;;;;;;5089009;28;20474;-63
2021/07/20 00:52:36;;;;;;;14.48;10.10;;;14.90;99.90;;;;;;5104904;28;20202;-63
2021/07/20 00:55:05;;;;;;;14.48;9.73;;;14.70;99.90;;;;;;5101655;28;20245;-64
2021/07/20 00:57:33;;;;;;;11.57;9.55;;;14.70;99.90;;;;;;5080108;28;20205;-64
2021/07/20 01:00:00;;;;;;;12.52;8.75;;;14.90;99.90;;;;;;5100743;28;20247;-65
2021/07/20 01:02:27;;;;;;;18.52;9.15;;;14.80;99.90;;;;;;5104143;28;20201;-64
2021/07/20 01:04:55;;;;;;;19.52;10.30;;;14.90;99.90;;;;;;5102299;28;20214;-64
2021/07/20 01:07:23;;;;;;;16.17;9.60;;;14.80;99.90;;;;;;5107431;28;20551;-63
2021/07/20 01:09:52;;;;;;;17.23;9.98;;;14.70;99.90;;;;;;5103620;28;20228;-63
2021/07/20 01:12:21;;;;;;;12.98;8.75;;;14.60;99.90;;;;;;5103957;28;20237;-63
2021/07/20 01:14:50;;;;;;;16.80;10.02;;;14.50;99.90;;;;;;5109665;28;20459;-63
2021/07/20 01:17:19;;;;;;;11.80;7.75;;;14.50;99.90;;;;;;5100892;28;20210;-63
2021/07/20 01:19:54;;;;;;;17.83;8.73;;;14.50;99.90;;;;;;5100033;28;20220;-63
2021/07/20 01:22:32;;;;;;;15.15;8.93;;;14.30;99.90;;;;;;5105638;28;20247;-63
2021/07/20 01:25:01;;;;;;;15.65;10.43;;;14.40;99.90;;;;;;5102283;28;20206;-62
2021/07/20 01:27:29;;;;;;;10.55;8.65;;;14.40;99.90;;;;;;5101834;28;20252;-63
2021/07/20 01:29:57;;;;;;;12.50;9.32;;;14.50;99.90;;;;;;5080715;28;20206;-63
2021/07/20 01:32:25;;;;;;;13.25;9.65;;;14.50;99.90;;;;;;5108705;28;20202;-62
2021/07/20 01:34:53;;;;;;;20.08;12.27;;;14.60;99.90;;;;;;5102458;28;20201;-63
2021/07/20 01:37:22;;;;;;;17.90;13.60;;;14.50;99.90;;;;;;5102169;28;20217;-63
2021/07/20 01:39:51;;;;;;;20.55;14.95;;;14.60;99.90;;;;;;5104439;28;20266;-63
2021/07/20 01:42:19;;;;;;;25.08;15.63;;;14.60;99.90;;;;;;5100359;28;20226;-64
2021/07/20 01:44:48;;;;;;;21.25;14.85;;;14.50;99.90;;;;;;5107738;28;20281;-64
2021/07/20 01:47:16;;;;;;;22.45;12.70;;;14.50;99.90;;;;;;5099388;28;20233;-64
2021/07/20 01:49:44;;;;;;;22.50;13.27;;;14.50;99.90;;;;;;5101939;28;20269;-63
2021/07/20 01:52:12;;;;;;;18.67;12.38;;;14.50;99.90;;;;;;5100332;28;20206;-62
2021/07/20 01:54:47;;;;;;;15.70;10.60;;;14.40;99.90;;;;;;5113951;28;20224;-64
2021/07/20 01:57:14;;;;;;;19.73;11.90;;;14.30;99.90;;;;;;5116930;28;20213;-64
2021/07/20 01:59:42;;;;;;;16.88;11.35;;;14.20;99.90;;;;;;5114056;28;20202;-64
2021/07/20 02:02:27;;;;;;;15.60;11.18;;;14.20;99.90;;;;;;5107765;28;20201;-64
2021/07/20 02:10:29;;;;;;;24.65;11.43;;;14.30;99.90;;;;;;5107336;28;20198;-64
2021/07/20 02:13:00;;;;;;;15.32;9.55;;;14.20;99.90;;;;;;5107667;28;20237;-65
2021/07/20 02:15:29;;;;;;;19.08;12.20;;;14.10;99.90;;;;;;5105932;28;20214;-63
2021/07/20 02:17:58;;;;;;;15.60;10.85;;;14.20;99.90;;;;;;5097086;28;20202;-63
2021/07/20 02:20:28;;;;;;;14.52;9.90;;;14.30;99.90;;;;;;5105218;28;20205;-64
2021/07/20 02:22:57;;;;;;;17.80;10.65;;;14.20;99.90;;;;;;5104699;28;20198;-64
2021/07/20 02:25:26;;;;;;;15.77;10.75;;;14.20;99.90;;;;;;5104314;28;20509;-63
2021/07/20 02:27:55;;;;;;;14.73;10.07;;;14.20;99.90;;;;;;5110029;28;20496;-63
2021/07/20 02:30:22;;;;;;;13.02;9.70;;;14.10;99.90;;;;;;5089908;28;20202;-65
2021/07/20 02:32:51;;;;;;;13.70;9.50;;;14.30;99.90;;;;;;5111008;28;20202;-64
2021/07/20 02:35:24;;;;;;;16.27;11.82;;;14.20;99.90;;;;;;5115071;28;20206;-64
2021/07/20 02:37:53;;;;;;;20.08;11.82;;;14.20;99.90;;;;;;5114425;28;20202;-64
2021/07/20 02:40:23;;;;;;;13.93;9.85;;;14.20;99.90;;;;;;5108203;28;20247;-65
2021/07/20 02:42:56;;;;;;;16.50;11.68;;;14.40;99.90;;;;;;5115047;28;20504;-66
2021/07/20 02:45:24;;;;;;;21.65;13.55;;;14.40;99.90;;;;;;5112905;28;20248;-65
2021/07/20 02:47:52;;;;;;;19.05;11.35;;;14.40;99.90;;;;;;5116146;28;20267;-64
2021/07/20 02:50:20;;;;;;;18.08;12.25;;;14.50;99.90;;;;;;5116605;28;20210;-64
2021/07/20 02:52:49;;;;;;;16.90;11.70;;;14.60;99.90;;;;;;5118703;28;20666;-64
2021/07/20 02:55:18;;;;;;;18.52;12.65;;;14.70;99.90;;;;;;5113216;28;20311;-63
2021/07/20 02:57:47;;;;;;;19.60;12.75;;;14.80;99.90;;;;;;5115963;28;20263;-64
2021/07/20 03:00:15;;;;;;;12.80;10.45;;;14.80;99.90;;;;;;5114604;28;20264;-65
2021/07/20 03:02:46;;;;;;;17.65;10.70;;;14.90;99.90;;;;;;5115519;28;20194;-65
2021/07/20 03:05:14;;;;;;;12.45;10.05;;;14.90;99.90;;;;;;5109405;28;20312;-64
2021/07/20 03:07:54;;;;;;;16.65;9.57;;;15.10;99.90;;;;;;5111520;28;20339;-64
2021/07/20 03:10:23;;;;;;;18.45;9.70;;;14.90;99.90;;;;;;5111068;28;20205;-63
2021/07/20 03:12:52;;;;;;;18.35;9.00;;;15.10;99.90;;;;;;5111378;28;20236;-64
2021/07/20 03:15:19;;;;;;;11.20;8.25;;;15.20;99.90;;;;;;5113781;28;20432;-63
2021/07/20 03:17:47;;;;;;;16.48;9.80;;;15.20;99.90;;;;;;5107183;28;20442;-64
2021/07/20 03:20:15;;;;;;;18.52;9.50;;;15.40;99.90;;;;;;5104051;28;20256;-63
2021/07/20 03:22:43;;;;;;;18.50;9.00;;;15.50;99.90;;;;;;5114289;28;20425;-64
2021/07/20 03:25:13;;;;;;;14.00;9.20;;;15.70;99.90;;;;;;5100236;28;20203;-64
2021/07/20 03:27:42;;;;;;;14.48;9.98;;;15.70;99.90;;;;;;5108313;28;20325;-67
2021/07/20 03:30:10;;;;;;;15.43;10.68;;;15.60;99.90;;;;;;5114261;28;20248;-64
2021/07/20 03:32:44;;;;;;;22.10;11.15;;;15.40;99.90;;;;;;5117564;28;20231;-64
2021/07/20 03:35:13;;;;;;;17.50;12.25;;;15.50;99.90;;;;;;5102154;28;20241;-64
2021/07/20 03:37:42;;;;;;;17.17;11.55;;;15.50;99.90;;;;;;5108882;28;20206;-64
2021/07/20 03:40:11;;;;;;;15.27;10.50;;;15.80;99.90;;;;;;5112183;28;20243;-64
2021/07/20 03:42:39;;;;;;;18.15;10.23;;;16.00;99.90;;;;;;5106764;28;20206;-64
2021/07/20 03:45:08;;;;;;;16.10;10.48;;;15.90;99.90;;;;;;5109078;28;20242;-64
2021/07/20 03:47:37;;;;;;;11.45;9.13;;;16.00;99.90;;;;;;5088168;28;20247;-63
2021/07/20 03:50:06;;;;;;;15.73;10.40;;;16.20;99.90;;;;;;5104178;28;20204;-64
2021/07/20 03:52:36;;;;;;;14.77;9.65;;;16.00;99.90;;;;;;5106398;28;20539;-64
2021/07/20 03:55:05;;;;;;;13.77;10.07;;;15.90;99.90;;;;;;5111335;28;20465;-64
2021/07/20 03:57:32;;;;;;;16.73;9.13;;;16.10;99.90;;;;;;5113196;28;20207;-64
2021/07/20 04:00:04;;;;;;;16.35;9.25;;;16.20;99.90;;;;;;5108248;28;20543;-63
2021/07/20 04:02:44;;;;;;;12.63;9.33;;;16.10;99.90;;;;;;5107660;28;20528;-63
2021/07/20 04:05:13;;;;;;;15.13;10.00;;;16.10;99.90;;;;;;5101705;28;20458;-63
2021/07/20 04:07:42;;;;;;;16.20;9.37;;;16.10;99.90;;;;;;5100964;28;20476;-63
2021/07/20 04:10:10;;;;;;;15.82;9.00;;;16.00;99.90;;;;;;5102153;28;20446;-65
2021/07/20 04:12:38;;;;;;;16.20;8.45;;;16.00;99.90;;;;;;5103213;28;20272;-64
2021/07/20 04:15:06;;;;;;;11.13;10.00;;;16.20;99.90;;;;;;5107696;28;20226;-64
2021/07/20 04:17:35;;;;;;;15.50;10.27;;;16.30;99.90;;;;;;5109234;28;20419;-65
2021/07/20 04:20:05;;;;;;;13.93;9.30;;;16.30;99.90;;;;;;5108898;28;20639;-64
2021/07/20 04:22:32;;;;;;;12.27;9.67;;;16.30;99.90;;;;;;5101026;28;20830;-63
2021/07/20 04:25:00;;;;;;;12.70;9.23;;;16.40;99.90;;;;;;5105335;28;20445;-63
2021/07/20 04:27:29;;;;;;;12.33;8.80;;;16.50;99.90;;;;;;5105233;28;20455;-64
2021/07/20 04:29:56;;;;;;;17.67;12.20;;;16.60;99.90;;;;;;5111564;28;20440;-64
2021/07/20 04:32:26;;;;;;;13.40;10.00;;;16.60;99.90;;;;;;5112792;28;20414;-65
2021/07/20 04:34:55;;;;;;;12.43;9.60;;;16.70;99.90;;;;;;5098695;28;20439;-64
2021/07/20 04:37:24;;;;;;;19.03;10.33;;;16.90;99.90;;;;;;5107561;28;20444;-64
2021/07/20 04:39:54;;;;;;;14.40;9.53;;;17.00;99.90;;;;;;5103824;28;20421;-64
2021/07/20 04:42:21;;;;;;;13.23;8.43;;;17.00;99.90;;;;;;5100144;28;20417;-64
2021/07/20 04:44:48;;;;;;;11.50;8.03;;;17.00;99.90;;;;;;5102210;28;20416;-64
2021/07/20 04:47:15;;;;;;;12.30;9.30;;;17.20;99.90;;;;;;5110049;28;21013;-64
2021/07/20 04:49:42;;;;;;;13.73;10.57;;;17.10;99.90;;;;;;5107363;28;20448;-65
2021/07/20 04:52:11;;;;;;;12.43;8.60;;;17.20;99.90;;;;;;5099656;28;20510;-65
2021/07/20 04:54:39;;;;;;;13.40;8.07;;;17.30;99.90;;;;;;5102715;28;20441;-65
2021/07/20 04:57:06;;;;;;;9.40;7.50;;;17.40;99.90;;;;;;5103632;28;20442;-64
2021/07/20 04:59:34;;;;;;;19.13;9.30;;;17.50;99.90;;;;;;5109427;28;20417;-64
2021/07/20 05:02:06;;;;;;;10.80;8.07;;;17.60;99.90;;;;;;5103914;28;20504;-64
2021/07/20 05:04:35;;;;;;;14.50;10.83;;;17.60;99.90;;;;;;5107659;28;20838;-64
2021/07/20 05:07:05;;;;;;;16.37;9.70;;;17.60;99.90;;;;;;5102380;28;20461;-64
2021/07/20 05:09:34;;;;;;;11.70;10.27;;;17.40;99.90;;;;;;5102348;28;20436;-64
2021/07/20 05:12:06;;;;;;;16.53;12.37;;;17.40;99.90;;;;;;5101795;28;20470;-64
2021/07/20 05:14:35;;;;;;;11.80;10.30;;;17.50;99.90;;;;;;5108701;28;20396;-64
2021/07/20 05:17:05;;;;;;;11.40;9.60;;;17.70;99.90;;;;;;5101948;28;20440;-65
2021/07/20 05:19:33;;;;;;;10.67;9.07;;;17.90;99.90;;;;;;5111314;28;20482;-64
2021/07/20 05:22:01;;;;;;;12.03;7.93;;;17.90;99.90;;;;;;5108327;28;20414;-64
2021/07/20 05:24:31;;;;;;;9.50;8.47;;;17.90;99.90;;;;;;5088621;28;20443;-66
2021/07/20 05:27:00;;;;;;;9.73;8.17;;;18.00;99.90;;;;;;5110751;28;20607;-65
2021/07/20 05:29:28;;;;;;;8.63;7.80;;;18.00;99.90;;;;;;5088325;28;20417;-65
2021/07/20 05:31:55;;;;;;;9.93;8.47;;;18.30;99.90;;;;;;5104395;28;20441;-65
2021/07/20 05:34:23;;;;;;;8.87;7.83;;;18.20;99.90;;;;;;5103937;28;20499;-64
2021/07/20 05:36:51;;;;;;;10.50;7.07;;;18.20;99.90;;;;;;5104559;28;20462;-63
2021/07/20 05:39:18;;;;;;;7.13;6.40;;;18.40;99.90;;;;;;5088116;28;20424;-63
2021/07/20 05:41:45;;;;;;;11.50;7.13;;;18.50;99.90;;;;;;5102226;28;20619;-64
2021/07/20 05:44:13;;;;;;;8.03;6.90;;;18.60;99.90;;;;;;5106646;28;20417;-64
2021/07/20 05:46:42;;;;;;;13.37;6.77;;;19.00;99.90;;;;;;5102134;28;20458;-64
2021/07/20 05:49:13;;;;;;;7.93;7.03;;;19.00;99.90;;;;;;5099419;28;20425;-65
2021/07/20 05:51:41;;;;;;;9.43;7.97;;;18.90;99.90;;;;;;5102262;28;20739;-64
2021/07/20 05:54:09;;;;;;;11.57;8.47;;;18.80;99.90;;;;;;5104980;28;20492;-65
2021/07/20 05:56:36;;;;;;;11.70;8.70;;;18.90;99.90;;;;;;5100434;28;20694;-64
2021/07/20 05:59:04;;;;;;;14.90;9.47;;;18.70;99.90;;;;;;5107981;28;20442;-64
2021/07/20 06:01:32;;;;;;;10.03;8.97;;;18.60;99.90;;;;;;5102604;28;20498;-64
2021/07/20 06:04:00;;;;;;;12.37;8.30;;;18.50;99.90;;;;;;5100708;28;20502;-63
2021/07/20 06:06:31;;;;;;;11.50;8.40;;;18.50;99.90;;;;;;5100895;28;20839;-64
2021/07/20 06:09:02;;;;;;;9.00;8.10;;;18.50;99.90;;;;;;5099049;28;20489;-64
2021/07/20 06:11:32;;;;;;;9.37;8.40;;;18.60;99.90;;;;;;5108517;28;20678;-64
2021/07/20 06:14:01;;;;;;;11.13;8.53;;;18.80;99.90;;;;;;5099396;28;20458;-66
2021/07/20 06:16:28;;;;;;;11.60;8.30;;;19.00;99.90;;;;;;5107593;28;20455;-64
2021/07/20 06:18:56;;;;;;;8.90;6.30;;;19.00;99.90;;;;;;5090258;28;20437;-65
2021/07/20 06:21:24;;;;;;;16.37;7.83;;;19.20;99.90;;;;;;5089614;28;20424;-63
2021/07/20 06:23:53;;;;;;;10.73;7.83;;;19.40;99.90;;;;;;5098628;28;20413;-65
2021/07/20 06:26:25;;;;;;;9.57;7.60;;;19.80;99.90;;;;;;5097573;28;20414;-65
2021/07/20 06:28:54;;;;;;;9.30;8.40;;;20.10;99.90;;;;;;5103380;28;20482;-64
2021/07/20 06:31:22;;;;;;;9.43;8.53;;;20.40;99.90;;;;;;5104965;28;20510;-65
2021/07/20 06:33:49;;;;;;;8.60;7.23;;;20.60;99.90;;;;;;5106081;28;20473;-64
2021/07/20 06:36:18;;;;;;;11.20;8.43;;;20.80;99.90;;;;;;5096622;28;20471;-65
2021/07/20 06:38:45;;;;;;;7.70;7.00;;;21.00;99.90;;;;;;5099381;28;20444;-65
2021/07/20 06:41:13;;;;;;;11.13;6.87;;;21.60;99.90;;;;;;5092066;28;20800;-64
2021/07/20 06:43:41;;;;;;;14.00;7.40;;;22.40;99.90;;;;;;5095366;28;20441;-64
2021/07/20 06:46:10;;;;;;;9.63;7.50;;;23.40;99.90;;;;;;5096173;28;20457;-64
2021/07/20 06:48:40;;;;;;;8.53;7.73;;;23.80;99.90;;;;;;5093612;28;20451;-64
2021/07/20 06:51:07;;;;;;;7.40;6.70;;;24.20;99.90;;;;;;5100510;28;20443;-65
2021/07/20 06:53:35;;;;;;;8.00;6.57;;;24.40;99.90;;;;;;5097249;28;20506;-63
2021/07/20 06:56:05;;;;;;;8.30;7.50;;;23.90;99.90;;;;;;5093561;28;20440;-63
2021/07/20 06:58:33;;;;;;;9.30;7.33;;;23.90;99.90;;;;;;5099182;28;20444;-63
2021/07/20 07:01:03;;;;;;;9.80;7.53;;;24.20;99.90;;;;;;5098792;28;20414;-62
2021/07/20 07:03:34;;;;;;;7.00;6.27;;;24.20;99.90;;;;;;5096022;28;20768;-63
2021/07/20 07:06:02;;;;;;;9.37;6.30;;;24.40;99.90;;;;;;5100784;28;20732;-63
2021/07/20 07:08:30;;;;;;;10.63;7.83;;;24.60;99.90;;;;;;5103253;28;20480;-63
2021/07/20 07:10:59;;;;;;;10.37;8.40;;;24.70;99.90;;;;;;5093528;28;20551;-62
2021/07/20 07:13:29;;;;;;;8.87;8.07;;;24.70;99.90;;;;;;5100206;28;20524;-64
2021/07/20 07:15:57;;;;;;;8.13;7.20;;;25.00;99.90;;;;;;5097617;28;20463;-62
2021/07/20 07:18:25;;;;;;;10.20;7.40;;;24.80;99.90;;;;;;5105984;28;20656;-64
2021/07/20 07:20:55;;;;;;;8.93;7.77;;;25.00;99.90;;;;;;5100320;28;20485;-63
2021/07/20 07:23:25;;;;;;;8.13;7.50;;;26.20;98.40;;;;;;5100855;28;20439;-63
2021/07/20 07:25:57;;;;;;;11.03;7.97;;;27.40;96.80;;;;;;5094630;28;20447;-62
2021/07/20 07:28:26;;;;;;;8.83;7.10;;;27.00;97.00;;;;;;5100879;28;20540;-64
2021/07/20 07:30:54;;;;;;;8.67;7.93;;;27.40;96.40;;;;;;5100300;28;20640;-64
2021/07/20 07:33:22;;;;;;;10.40;8.13;;;28.90;94.10;;;;;;5095323;28;20434;-62
2021/07/20 07:35:50;;;;;;;10.03;9.13;;;31.00;91.00;;;;;;5100585;28;20435;-62
2021/07/20 07:38:19;;;;;;;9.50;8.63;;;33.10;85.60;;;;;;5110481;28;20632;-63
2021/07/20 07:40:54;;;;;;;10.87;10.03;;;34.20;78.20;;;;;;5105712;28;20518;-63
2021/07/20 07:43:25;;;;;;;10.20;9.63;;;33.50;76.70;;;;;;5099865;28;20437;-63
2021/07/20 07:45:55;;;;;;;10.80;10.00;;;33.80;75.60;;;;;;5094690;28;20522;-64
2021/07/20 07:48:24;;;;;;;11.37;10.53;;;33.80;72.70;;;;;;5099977;28;20516;-65
2021/07/20 07:50:57;;;;;;;10.50;9.77;;;33.30;74.20;;;;;;5094082;28;20447;-63
2021/07/20 07:53:25;;;;;;;11.07;10.17;;;33.10;74.10;;;;;;5100135;28;20454;-64
2021/07/20 07:55:54;;;;;;;10.13;9.53;;;33.70;73.50;;;;;;5095291;28;20773;-63
2021/07/20 07:58:29;;;;;;;10.03;9.40;;;33.70;72.00;;;;;;5099569;28;20496;-64
2021/07/20 08:00:59;;;;;;;9.70;9.20;;;33.50;72.70;;;;;;5095476;28;20484;-63
2021/07/20 08:03:33;;;;;;;10.73;9.93;;;33.90;70.10;;;;;;5096253;28;20489;-67
2021/07/20 08:06:03;;;;;;;10.80;10.17;;;34.40;68.80;;;;;;5098798;28;20439;-64
2021/07/20 08:08:33;;;;;;;10.70;10.10;;;35.80;65.70;;;;;;5098567;28;20699;-63
2021/07/20 08:11:04;;;;;;;10.80;10.20;;;36.90;63.20;;;;;;5095674;28;20439;-64
2021/07/20 08:13:32;;;;;;;11.53;10.83;;;37.60;61.00;;;;;;5080844;28;20483;-63
2021/07/20 08:16:00;;;;;;;10.20;9.70;;;38.40;58.90;;;;;;5094723;28;20528;-63
2021/07/20 08:18:30;;;;;;;12.80;11.90;;;37.90;58.30;;;;;;5094257;28;20447;-63
2021/07/20 08:21:06;;;;;;;10.67;10.17;;;37.20;58.80;;;;;;5099818;28;20484;-64
2021/07/20 08:23:34;;;;;;;11.13;10.53;;;37.40;57.80;;;;;;5098931;28;20484;-65
2021/07/20 08:26:13;;;;;;;9.93;9.33;;;35.50;59.40;;;;;;5094341;28;20619;-65
2021/07/20 08:28:54;;;;;;;10.53;9.93;;;35.00;59.90;;;;;;5109187;28;20470;-64
2021/07/20 08:31:23;;;;;;;10.20;9.53;;;34.10;62.10;;;;;;5104405;28;20471;-66
2021/07/20 08:33:54;;;;;;;11.07;10.37;;;34.50;61.60;;;;;;5099570;28;20680;-63
2021/07/20 08:36:24;;;;;;;11.00;10.30;;;34.20;61.60;;;;;;5097999;28;20448;-66
2021/07/20 08:38:54;;;;;;;10.60;9.90;;;34.10;61.60;;;;;;5080094;28;20793;-65
2021/07/20 08:41:24;;;;;;;11.50;10.70;;;33.00;63.00;;;;;;5098015;28;20450;-66
2021/07/20 08:44:12;;;;;;;11.73;11.03;;;33.20;61.80;;;;;;5100275;28;20435;-65
2021/07/20 08:47:03;;;;;;;11.33;10.60;;;32.70;64.00;;;;;;5086115;28;20428;-64
2021/07/20 08:49:52;;;;;;;10.57;9.67;;;33.50;64.00;;;;;;5087478;28;21394;-65
2021/07/20 08:53:06;;;;;;;10.40;9.40;;;34.10;62.00;;;;;;5092149;28;20419;-64
2021/07/20 08:55:39;;;;;;;11.40;10.70;;;33.20;64.30;;;;;;5090698;28;20446;-64
2021/07/20 08:58:27;;;;;;;9.70;8.90;;;33.70;64.50;;;;;;5105249;28;20434;-65
2021/07/20 09:01:06;;;;;;;10.13;9.53;;;33.40;63.80;;;;;;5099567;28;20434;-64
2021/07/20 09:03:42;;;;;;;10.70;9.90;;;32.30;67.30;;;;;;5108611;28;20483;-64
2021/07/20 09:06:17;;;;;;;10.80;10.00;;;30.30;70.30;;;;;;5098938;28;20436;-64
2021/07/20 09:08:53;;;;;;;9.50;9.00;;;29.40;73.30;;;;;;5097799;28;20463;-63
2021/07/20 09:11:39;;;;;;;9.80;9.20;;;28.90;74.70;;;;;;5098085;28;20435;-64
2021/07/20 09:14:18;;;;;;;9.90;9.20;;;28.00;75.10;;;;;;5097772;28;20401;-63
2021/07/20 09:16:49;;;;;;;10.33;9.40;;;27.40;75.50;;;;;;5097872;28;20480;-63
2021/07/20 09:19:28;;;;;;;9.03;8.47;;;26.70;78.00;;;;;;5097591;28;20540;-63
2021/07/20 09:21:59;;;;;;;9.67;9.00;;;26.30;79.90;;;;;;5097162;28;20483;-65
2021/07/20 09:24:33;;;;;;;9.73;8.97;;;26.40;82.90;;;;;;5088238;28;20786;-64
2021/07/20 09:27:11;;;;;;;9.70;8.90;;;25.50;83.50;;;;;;5097613;28;20825;-63
2021/07/20 09:30:00;;;;;;;9.47;8.77;;;25.10;87.50;;;;;;5109211;28;20731;-65
2021/07/20 09:32:57;;;;;;;9.33;8.73;;;25.00;87.80;;;;;;5105643;28;20752;-64
2021/07/20 09:35:39;;;;;;;8.97;8.10;;;24.80;87.40;;;;;;5101825;28;20421;-65
2021/07/20 09:38:26;;;;;;;8.33;7.83;;;24.70;86.50;;;;;;5091137;28;20486;-65
2021/07/20 09:41:11;;;;;;;13.93;8.90;;;24.40;87.50;;;;;;5097033;28;20535;-65
2021/07/20 09:44:08;;;;;;;8.13;7.63;;;24.20;88.10;;;;;;5093258;28;20427;-66
2021/07/20 09:46:49;;;;;;;7.80;7.23;;;24.20;89.80;;;;;;5079748;28;20398;-63
2021/07/20 09:49:24;;;;;;;8.10;7.50;;;24.40;89.50;;;;;;5093627;28;20446;-64
2021/07/20 09:52:19;;;;;;;7.87;7.37;;;24.30;89.20;;;;;;5097813;28;20434;-64
2021/07/20 09:55:01;;;;;;;8.53;7.83;;;24.30;89.30;;;;;;5096264;28;20492;-64
2021/07/20 09:57:28;;;;;;;8.40;7.23;;;24.20;90.40;;;;;;5079920;28;20774;-65
2021/07/20 10:00:22;;;;;;;8.70;7.90;;;24.60;88.80;;;;;;5097175;28;20484;-63
2021/07/20 10:02:49;;;;;;;9.47;7.47;;;25.40;86.50;;;;;;5096715;28;20640;-63
2021/07/20 10:05:43;;;;;;;8.87;8.10;;;26.20;84.50;;;;;;5099093;28;20462;-65
2021/07/20 10:08:21;;;;;;;7.90;7.20;;;26.70;81.00;;;;;;5095401;28;20776;-64
2021/07/20 10:10:56;;;;;;;8.80;7.53;;;26.60;81.10;;;;;;5096152;28;20435;-65
2021/07/20 10:13:32;;;;;;;8.43;7.80;;;26.90;83.00;;;;;;5096782;28;20661;-64
2021/07/20 10:16:37;;;;;;;7.33;6.83;;;26.50;82.50;;;;;;5100399;28;20481;-63
2021/07/20 10:19:39;;;;;;;8.47;7.77;;;25.70;84.30;;;;;;5111840;28;20511;-63
2021/07/20 10:22:12;;;;;;;7.73;7.13;;;25.40;86.50;;;;;;5110167;28;20563;-65
2021/07/20 10:24:52;;;;;;;7.53;6.93;;;25.10;87.00;;;;;;5111185;28;20513;-64
2021/07/20 10:27:36;;;;;;;7.33;6.83;;;24.40;88.30;;;;;;5114982;28;20438;-63
2021/07/20 10:30:12;;;;;;;7.40;6.90;;;23.80;90.30;;;;;;5090823;28;20464;-64
2021/07/20 10:33:18;;;;;;;11.60;7.67;;;23.90;90.40;;;;;;5100415;28;20459;-64
2021/07/20 10:36:05;;;;;;;7.93;7.33;;;24.40;88.60;;;;;;5087209;28;20430;-65
2021/07/20 10:38:40;;;;;;;8.20;7.50;;;24.30;89.00;;;;;;5100820;28;20649;-63
2021/07/20 10:41:10;;;;;;;10.30;7.30;;;24.40;88.80;;;;;;5095280;28;20466;-64
2021/07/20 10:44:02;;;;;;;8.07;7.47;;;24.40;88.60;;;;;;5099981;28;20476;-64
2021/07/20 10:46:31;;;;;;;7.93;7.33;;;24.60;90.00;;;;;;5101197;28;20678;-63
2021/07/20 10:49:17;;;;;;;9.27;8.57;;;24.60;89.70;;;;;;5099000;28;20453;-65
2021/07/20 10:51:47;;;;;;;9.40;7.90;;;24.70;89.60;;;;;;5100517;28;20423;-64
2021/07/20 10:54:25;;;;;;;7.77;7.13;;;24.70;88.50;;;;;;5099512;28;20551;-65
2021/07/20 10:57:01;;;;;;;7.83;7.23;;;24.40;87.20;;;;;;5099609;28;20669;-64
2021/07/20 10:59:45;;;;;;;8.20;7.53;;;24.10;89.00;;;;;;5087236;28;20405;-64
2021/07/20 11:02:50;;;;;;;7.70;7.10;;;24.10;88.40;;;;;;5099776;28;20461;-64
2021/07/20 11:05:18;;;;;;;8.40;7.70;;;24.10;88.90;;;;;;5066251;28;20476;-64
2021/07/20 11:07:59;;;;;;;8.07;7.37;;;24.10;89.70;;;;;;5098220;28;20496;-65
2021/07/20 11:10:33;;;;;;;8.13;7.43;;;24.10;89.20;;;;;;5082503;28;20427;-65
2021/07/20 11:13:10;;;;;;;9.23;7.80;;;24.20;90.30;;;;;;5097844;28;20492;-65
2021/07/20 11:15:39;;;;;;;7.47;6.93;;;24.20;89.70;;;;;;5099121;28;20633;-63
2021/07/20 11:18:12;;;;;;;7.13;6.70;;;24.40;89.50;;;;;;5104581;28;20456;-63
2021/07/20 11:20:42;;;;;;;7.67;7.07;;;24.70;89.20;;;;;;5082166;28;20448;-64
2021/07/20 11:23:10;;;;;;;7.93;7.27;;;24.70;90.30;;;;;;5102306;28;20439;-66
2021/07/20 11:25:39;;;;;;;6.87;6.40;;;24.70;90.30;;;;;;5096177;28;20450;-64
2021/07/20 11:28:06;;;;;;;8.07;7.37;;;24.40;90.70;;;;;;5087030;28;20562;-65
2021/07/20 11:30:39;;;;;;;7.10;6.53;;;24.30;91.30;;;;;;5107859;28;20477;-66
2021/07/20 11:33:16;;;;;;;8.20;7.40;;;24.30;91.10;;;;;;5102941;28;20809;-64
2021/07/20 11:36:00;;;;;;;8.07;7.30;;;23.90;91.10;;;;;;5085901;28;20758;-64
2021/07/20 11:38:31;;;;;;;7.37;6.87;;;23.60;92.10;;;;;;5097769;28;20858;-65
2021/07/20 11:41:06;;;;;;;8.20;7.50;;;23.90;91.20;;;;;;5098179;28;20744;-64
2021/07/20 11:44:01;;;;;;;7.43;6.93;;;24.20;91.00;;;;;;5076319;28;20629;-64
2021/07/20 11:46:56;;;;;;;6.73;6.33;;;24.50;90.00;;;;;;5098396;28;20393;-64
2021/07/20 11:49:38;;;;;;;7.43;6.93;;;24.70;88.00;;;;;;5085240;28;20482;-64
2021/07/20 11:52:12;;;;;;;6.07;5.77;;;24.70;88.20;;;;;;5093094;28;20446;-64
2021/07/20 11:55:00;;;;;;;7.40;6.80;;;24.80;87.40;;;;;;5097892;28;20446;-64
2021/07/20 11:57:52;;;;;;;7.23;6.73;;;25.10;87.80;;;;;;5098238;28;20398;-64
2021/07/20 12:00:29;;;;;;;7.43;6.93;;;24.70;86.70;;;;;;5092530;28;20480;-64
2021/07/20 12:03:11;;;;;;;7.90;7.40;;;24.80;86.90;;;;;;5084222;28;20628;-64
2021/07/20 12:05:42;;;;;;;6.87;6.30;;;24.80;87.60;;;;;;5097685;28;20462;-64
2021/07/20 12:08:28;;;;;;;7.50;7.00;;;25.00;88.00;;;;;;5097415;28;20541;-63
2021/07/20 12:11:07;;;;;;;6.33;6.00;;;25.40;85.10;;;;;;5097672;28;20480;-64
2021/07/20 12:13:36;;;;;;;11.37;7.37;;;26.00;84.70;;;;;;5056287;28;1205702;-65
2021/07/20 12:16:14;;;;;;;9.17;8.07;;;26.30;81.80;;;;;;5098026;28;20239;-64
2021/07/20 12:18:56;;;;;;;7.60;7.10;;;26.30;81.50;;;;;;5097887;28;20436;-65
2021/07/20 12:21:26;;;;;;;7.60;7.20;;;26.40;78.70;;;;;;5097363;28;20431;-65
2021/07/20 12:23:57;;;;;;;8.00;7.50;;;26.20;73.50;;;;;;5098388;28;20665;-64
2021/07/20 12:26:27;;;;;;;7.43;6.93;;;26.10;79.50;;;;;;5098019;28;20814;-65
2021/07/20 12:28:58;;;;;;;7.80;7.20;;;25.70;80.20;;;;;;5098089;28;20841;-64
2021/07/20 12:31:31;;;;;;;7.10;6.67;;;25.70;83.80;;;;;;5097312;28;20421;-65
2021/07/20 12:34:00;;;;;;;6.60;6.20;;;25.70;84.10;;;;;;5083738;28;20509;-64
2021/07/20 12:36:27;;;;;;;6.97;6.47;;;25.20;82.80;;;;;;5093528;28;20448;-63
2021/07/20 12:39:12;;;;;;;8.97;6.50;;;24.60;86.40;;;;;;5095582;28;20421;-64
2021/07/20 12:41:51;;;;;;;6.63;6.10;;;24.30;83.60;;;;;;5099729;28;20434;-63
2021/07/20 12:44:35;;;;;;;8.20;7.23;;;24.40;84.40;;;;;;5094792;28;20607;-63
2021/07/20 12:47:08;;;;;;;7.00;6.50;;;24.20;88.00;;;;;;5096251;28;20456;-66
2021/07/20 12:49:38;;;;;;;7.37;6.77;;;24.10;88.60;;;;;;5095467;28;20453;-64
2021/07/20 12:52:06;;;;;;;7.23;6.63;;;23.80;89.20;;;;;;5091007;28;20451;-64
2021/07/20 12:54:42;;;;;;;6.60;6.23;;;23.90;90.40;;;;;;5079696;28;20448;-65
2021/07/20 12:57:15;;;;;;;6.87;6.20;;;24.00;90.10;;;;;;5097186;28;20610;-64
2021/07/20 13:00:07;;;;;;;6.27;5.67;;;24.10;90.00;;;;;;5098018;28;20498;-64
2021/07/20 13:02:36;;;;;;;8.60;6.90;;;24.10;88.20;;;;;;5097693;28;20469;-63
2021/07/20 13:05:07;;;;;;;6.10;5.60;;;23.90;86.30;;;;;;5096906;28;20478;-64
2021/07/20 13:07:34;;;;;;;5.73;5.43;;;23.40;88.60;;;;;;5097293;28;20893;-65
2021/07/20 13:10:04;;;;;;;7.23;6.53;;;23.00;90.20;;;;;;5096638;28;20518;-66